AirNav   Duncan Aviation - Near you to keep you flying
 
 1222 users online  

ND02 Ricketyback Field Airport
Aneta, North Dakota, USA

GOING TO ANETA?


FAA INFORMATION EFFECTIVE 01 DECEMBER 2022

Location

FAA Identifier: ND02
Lat/Long: 47-48-39.9740N 097-57-36.3430W
47-48.666233N 097-57.605717W
47.8111039,-97.9600953
(estimated)
Elevation: 1510 ft. / 460 m (estimated)
Variation: 07E (1985)
From city: 8 miles NE of ANETA, ND
Time zone: UTC -6 (UTC -5 during Daylight Saving Time)
Zip code: 58212

Airport Operations

Airport use: Private use. Permission required prior to landing
Activation date: 08/1971
Control tower: no
ARTCC: MINNEAPOLIS CENTER
FSS: GRAND FORKS FLIGHT SERVICE STATION
Attendance: CONTINUOUS
Wind indicator: yes
Segmented circle: no
Lights: RWY LGTS OPER DUSK-DAWN SUMMER MOS; PRIOR REQ WINTER MOS 701-326-4205.

Nearby radio navigation aids

VOR radial/distance  VOR name  Freq  Var
GFKr246/32.3GRAND FORKS VOR/DME114.3009E

Airport Services

Airframe service: MINOR
Powerplant service: MINOR

Runway Information

Runway 17/35

Dimensions: 2600 x 100 ft. / 792 x 30 m
Surface: turf
Runway edge lights: low intensity
RUNWAY 17  RUNWAY 35
Latitude: 47-48.866167N47-48.466167N
Longitude: 097-57.705667W097-57.505667W
Elevation: 1510.0 ft.1510.0 ft.
Traffic pattern: leftleft

Airport Ownership and Management from official FAA records

Ownership: Privately-owned
Owner: CHARLES GEHRKE
12258- 28TH STREET NE
ANETA, ND 58212
Phone 701-326-4205
CELL PH 701-270-0152.
Manager: CHARLES GEHRKE
12258- 28TH STREET NE
ANETA, ND 58212
Phone 701-326-4205

Airport Operational Statistics

Aircraft based on the field: 4
Single engine airplanes: 4
    

Additional Remarks

RWY NOT PLOWED OR LGTD AFTER HEAVY SNOW.
130' AGL RADIO TOWER (L) 500' EAST OF RWY.
FOR CD CTC MINNEAPOLIS ARTCC AT 651-463-5588.

Instrument Procedures

There are no published instrument procedures at ND02.

Some nearby airports with instrument procedures:

4V4 - Northwood Municipal Airport-Vince Field (16 nm E)
5L0 - Lakota Municipal Airport (20 nm NW)
S32 - Cooperstown Municipal Airport (24 nm S)
KRDR - Grand Forks Air Force Base (24 nm E)
KGFK - Grand Forks International Airport (33 nm E)
 
Loc | Ops | Rwys | IFR | FBO | Links
Com | Nav | Svcs | Stats | Notes

Bismarck Aero Center
AirBoss

 
Area around ND02 (Ricketyback Field Airport)
 
Road maps at: MapQuest Bing Google
 
Aerial photo
No photo
 
Sectional chart

 
Airport distance calculator
Flying to Ricketyback Field Airport? Find the distance to fly.

From to ND02

Sunrise and sunset
Times for 03-Dec-2022
 Local
(UTC-6)
 Zulu
(UTC)
Morning civil twilight07:2813:28
Sunrise08:0314:03
Sunset16:4022:40
Evening civil twilight17:1523:15

Current date and time
Zulu (UTC)  04-Dec-2022 02:29:52
Local (UTC-6)  03-Dec-2022 20:29:52
 
METAR
KS32 
24nm S 
040215Z AUTO 25008KT 10SM CLR M21/M21 A3011 RMK AO2 TSNO
KRDR 
24nm NE 
040155Z AUTO 22007KT 10SM CLR M16/M19 A3011 RMK AO2 SLP228 T11571190 $
KGFK 
32nm E 
040153Z 21004KT 10SM CLR M18/M20 A3014 RMK AO2 SLP233 T11781200
KDVL 
43nm NW 
040156Z AUTO 22007KT 10SM CLR M14/M17 A3008 RMK AO2 SLP243 T11441172 FZRANO
KGAF 
43nm NE 
040215Z AUTO 18006KT 10SM CLR M16/M19 A3012 RMK AO2
TAF
NOTAMs
Click for the latest NOTAMs
NOTAMs are issued by the DoD/FAA and will open in a separate window not controlled by AirNav.

 

 
 

Would you like to see your business listed on this page?

 If your business provides an interesting product or service to pilots, flight crews, aircraft, or users of the Ricketyback Field Airport, you should consider listing it here.  To start the listing process, click on the button below
 
Add a business
 

Other Pages about Ricketyback Field Airport

Update a link
 
Copyright © AirNav, LLC. All rights reserved. Privacy Policy  Contact